createdAt,value
2024-01-05T00:00:56.663Z,4.82
2024-01-05T00:03:24.997Z,4.83
2024-01-05T00:05:54.698Z,4.77
2024-01-05T00:08:23.123Z,4.73
2024-01-05T00:10:51.279Z,4.64
2024-01-05T00:13:19.489Z,4.59
2024-01-05T00:15:47.597Z,4.57
2024-01-05T00:18:16.640Z,4.52
2024-01-05T00:20:44.870Z,4.47
2024-01-05T00:23:14.519Z,4.45
2024-01-05T00:25:43.243Z,4.40
2024-01-05T00:28:11.500Z,4.45
2024-01-05T00:30:39.891Z,4.22
2024-01-05T00:33:08.295Z,4.40
2024-01-05T00:35:36.642Z,4.61
2024-01-05T00:38:05.742Z,4.65
2024-01-05T00:40:35.338Z,4.70
2024-01-05T00:43:03.498Z,4.71
2024-01-05T00:45:31.855Z,4.69
2024-01-05T00:48:00.314Z,4.66
2024-01-05T00:50:28.527Z,4.67
2024-01-05T00:52:56.626Z,4.65
2024-01-05T00:55:25.400Z,4.46
2024-01-05T00:57:54.797Z,4.59
2024-01-05T01:00:22.963Z,4.52
2024-01-05T01:02:51.141Z,4.41
2024-01-05T01:05:19.578Z,4.34
2024-01-05T01:11:19.588Z,4.17
2024-01-05T01:13:47.751Z,4.12
2024-01-05T01:16:16.340Z,4.11
2024-01-05T01:18:44.827Z,4.15
2024-01-05T01:21:13.217Z,4.14
2024-01-05T01:23:41.378Z,4.10
2024-01-05T01:26:09.612Z,4.08
2024-01-05T01:28:39.316Z,4.01
2024-01-05T01:31:07.577Z,4.02
2024-01-05T01:33:35.877Z,3.93
2024-01-05T01:36:04.225Z,3.85
2024-01-05T01:38:32.438Z,3.83
2024-01-05T01:41:00.721Z,3.77
2024-01-05T01:43:29.487Z,3.74
2024-01-05T01:46:02.175Z,3.70
2024-01-05T01:48:31.914Z,3.78
2024-01-05T01:51:00.494Z,3.85
2024-01-05T01:53:30.206Z,3.81
2024-01-05T01:55:58.528Z,3.78
2024-01-05T01:58:27.603Z,3.77
2024-01-05T02:00:56.010Z,3.77
2024-01-05T02:03:25.742Z,3.70
2024-01-05T02:05:53.971Z,3.53
2024-01-05T02:08:22.263Z,3.62
2024-01-05T02:10:50.423Z,3.63
2024-01-05T02:13:18.579Z,3.63
2024-01-05T02:15:46.744Z,3.65
2024-01-05T02:18:36.628Z,3.64
2024-01-05T02:21:07.052Z,3.64
2024-01-05T02:23:36.665Z,3.65
2024-01-05T02:26:05.454Z,3.64
2024-01-05T02:28:33.607Z,3.62
2024-01-05T02:31:02.024Z,3.65
2024-01-05T02:33:31.071Z,3.62
2024-01-05T02:35:59.359Z,3.62
2024-01-05T02:38:27.548Z,3.56
2024-01-05T02:40:59.072Z,3.52
2024-01-05T02:43:27.132Z,3.50
2024-01-05T02:45:55.732Z,3.40
2024-01-05T02:48:23.986Z,3.39
2024-01-05T02:50:52.284Z,3.33
2024-01-05T02:53:20.509Z,3.46
2024-01-05T02:55:48.663Z,3.51
2024-01-05T02:58:18.153Z,3.54
2024-01-05T03:00:46.546Z,3.66
2024-01-05T03:03:14.788Z,3.76
2024-01-05T03:05:43.408Z,3.80
2024-01-05T03:08:11.553Z,3.87
2024-01-05T03:10:39.658Z,3.97
2024-01-05T03:13:08.048Z,4.05
2024-01-05T03:15:37.655Z,4.05
2024-01-05T03:18:06.470Z,4.10
2024-01-05T03:20:34.795Z,4.15
2024-01-05T03:23:03.090Z,4.23
2024-01-05T03:25:31.312Z,4.27
2024-01-05T03:27:59.352Z,4.36
2024-01-05T03:30:27.721Z,4.36
2024-01-05T03:32:57.520Z,4.43
2024-01-05T03:35:25.894Z,4.53
2024-01-05T03:37:54.014Z,4.56
2024-01-05T03:40:22.132Z,4.58
2024-01-05T03:42:50.487Z,4.63
2024-01-05T03:45:18.776Z,4.63
2024-01-05T03:47:47.070Z,4.67
2024-01-05T03:50:16.718Z,4.70
2024-01-05T03:52:44.939Z,4.74
2024-01-05T03:55:13.127Z,4.72
2024-01-05T03:57:41.293Z,4.67
2024-01-05T04:00:10.837Z,4.61
2024-01-05T04:02:39.075Z,4.57
2024-01-05T04:05:08.067Z,4.58
2024-01-05T04:07:37.656Z,4.62
2024-01-05T04:10:06.804Z,4.63
2024-01-05T04:12:34.975Z,4.65
2024-01-05T04:15:03.260Z,4.63
2024-01-05T04:17:31.801Z,4.67
2024-01-05T04:20:00.000Z,4.67
2024-01-05T04:22:32.091Z,4.68
2024-01-05T04:25:01.927Z,4.65
2024-01-05T04:27:30.738Z,4.72
2024-01-05T04:29:59.167Z,4.73
2024-01-05T04:32:27.282Z,4.76
2024-01-05T04:34:55.465Z,4.82
2024-01-05T04:37:23.769Z,4.89
2024-01-05T04:39:51.920Z,4.88
2024-01-05T04:42:21.514Z,4.89
2024-01-05T04:44:50.718Z,4.81
2024-01-05T04:47:19.289Z,4.72
2024-01-05T04:49:47.699Z,4.60
2024-01-05T04:52:15.987Z,4.47
2024-01-05T04:54:44.495Z,4.32
2024-01-05T04:57:12.671Z,4.17
2024-01-05T04:59:43.208Z,4.17
2024-01-05T05:02:11.341Z,4.15
2024-01-05T05:04:39.551Z,4.10
2024-01-05T05:07:07.705Z,4.08
2024-01-05T05:09:35.895Z,4.03
2024-01-05T05:12:04.101Z,4.03
2024-01-05T05:14:32.336Z,4.00
2024-01-05T05:17:01.974Z,3.99
2024-01-05T05:19:30.308Z,3.98
2024-01-05T05:21:58.811Z,4.00
2024-01-05T05:24:27.050Z,3.94
2024-01-05T05:26:55.335Z,3.97
2024-01-05T05:29:24.525Z,3.99
2024-01-05T05:31:52.734Z,4.01
2024-01-05T05:34:22.391Z,4.01
2024-01-05T05:36:50.890Z,4.00
2024-01-05T05:39:19.283Z,4.05
2024-01-05T05:41:47.471Z,4.06
2024-01-05T05:44:15.714Z,4.03
2024-01-05T05:46:43.830Z,4.08
2024-01-05T05:49:12.355Z,3.90
2024-01-05T05:51:42.315Z,4.08
2024-01-05T05:54:10.734Z,4.09
2024-01-05T05:56:40.100Z,4.08
2024-01-05T05:59:08.275Z,4.06
2024-01-05T06:01:36.477Z,4.03
2024-01-05T06:04:06.919Z,4.04
2024-01-05T06:06:35.182Z,4.01
2024-01-05T06:12:19.854Z,3.95
2024-01-05T06:14:48.786Z,3.99
2024-01-05T06:17:16.867Z,4.05
2024-01-05T06:19:45.683Z,4.06
2024-01-05T06:22:13.880Z,4.11
2024-01-05T06:24:42.125Z,4.12
2024-01-05T06:27:11.567Z,4.16
2024-01-05T06:29:42.320Z,4.16
2024-01-05T06:32:10.513Z,4.14
2024-01-05T06:34:38.974Z,4.15
2024-01-05T06:37:07.287Z,4.14
2024-01-05T06:39:35.623Z,4.14
2024-01-05T06:42:05.109Z,4.08
2024-01-05T06:44:35.137Z,4.13
2024-01-05T06:47:04.847Z,4.10
2024-01-05T06:49:33.182Z,4.06
2024-01-05T06:52:01.895Z,4.06
2024-01-05T06:54:30.101Z,3.92
2024-01-05T06:56:58.318Z,4.01
2024-01-05T06:59:31.258Z,3.97
2024-01-05T07:01:59.362Z,3.92
2024-01-05T07:04:29.238Z,3.86
2024-01-05T07:06:57.655Z,3.80
2024-01-05T07:09:26.166Z,3.66
2024-01-05T07:11:54.841Z,3.61
2024-01-05T07:14:22.983Z,3.55
2024-01-05T07:16:51.140Z,3.55
2024-01-05T07:19:20.322Z,3.61
2024-01-05T07:21:50.139Z,3.60
2024-01-05T07:24:18.666Z,3.72
2024-01-05T07:26:47.240Z,3.78
2024-01-05T07:29:25.252Z,3.85
2024-01-05T07:31:53.393Z,3.92
2024-01-05T07:34:21.641Z,3.95
2024-01-05T07:36:51.616Z,4.00
2024-01-05T07:39:20.946Z,4.08
2024-01-05T07:41:49.294Z,4.17
2024-01-05T07:44:18.132Z,4.22
2024-01-05T07:46:46.701Z,4.44
2024-01-05T07:49:15.148Z,4.50
2024-01-05T07:51:43.592Z,4.58
2024-01-05T07:54:13.306Z,4.62
2024-01-05T07:56:41.534Z,4.72
2024-01-05T07:59:09.683Z,4.69
2024-01-05T08:01:38.026Z,4.96
2024-01-05T08:04:06.529Z,5.06
2024-01-05T08:06:34.936Z,5.18
2024-01-05T08:09:03.396Z,5.32
2024-01-05T08:11:32.923Z,5.52
2024-01-05T08:14:01.136Z,5.66
2024-01-05T08:16:29.278Z,5.80
2024-01-05T08:18:57.574Z,5.92
2024-01-05T08:21:26.000Z,6.00
2024-01-05T08:23:54.290Z,6.08
2024-01-05T08:26:22.467Z,6.00
2024-01-05T08:28:52.008Z,6.08
2024-01-05T08:31:20.343Z,6.01
2024-01-05T08:33:48.836Z,5.99
2024-01-05T08:36:17.137Z,5.94
2024-01-05T08:38:46.771Z,5.96
2024-01-05T08:41:14.936Z,5.98
2024-01-05T08:43:45.374Z,5.99
2024-01-05T08:46:15.287Z,6.05
2024-01-05T08:48:45.965Z,6.08
2024-01-05T08:51:14.173Z,5.99
2024-01-05T08:53:43.690Z,6.19
2024-01-05T08:56:12.379Z,6.23
2024-01-05T08:58:40.918Z,6.48
2024-01-05T09:01:09.219Z,6.74
2024-01-05T09:03:39.171Z,7.04
2024-01-05T09:06:07.868Z,7.37
2024-01-05T09:08:36.619Z,7.55
2024-01-05T09:11:05.929Z,7.49
2024-01-05T09:13:36.162Z,7.55
2024-01-05T09:16:05.159Z,7.67
2024-01-05T09:18:35.500Z,7.65
2024-01-05T09:21:07.977Z,7.62
2024-01-05T09:23:36.222Z,7.61
2024-01-05T09:26:04.565Z,7.61
2024-01-05T09:28:32.901Z,7.65
2024-01-05T09:31:01.398Z,7.68
2024-01-05T09:33:30.056Z,8.09
2024-01-05T09:35:58.426Z,8.10
2024-01-05T09:38:48.040Z,8.02
2024-01-05T09:41:38.974Z,7.84
2024-01-05T09:44:29.079Z,7.79
2024-01-05T09:47:17.178Z,7.89
2024-01-05T09:52:55.267Z,7.91
2024-01-05T09:55:44.851Z,7.74
2024-01-05T09:58:33.674Z,7.66
2024-01-05T10:01:26.873Z,7.61
2024-01-05T10:04:15.200Z,7.62
2024-01-05T10:07:03.923Z,7.67
2024-01-05T10:09:53.230Z,7.74
2024-01-05T10:12:43.014Z,7.94
2024-01-05T10:15:31.307Z,8.16
2024-01-05T10:18:24.194Z,8.39
2024-01-05T10:21:13.829Z,8.29
2024-01-05T10:24:01.997Z,8.43
2024-01-05T10:27:02.626Z,8.41
2024-01-05T10:29:58.018Z,8.49
2024-01-05T10:32:46.706Z,8.70
2024-01-05T10:35:35.763Z,8.82
2024-01-05T10:38:26.050Z,8.97
2024-01-05T10:41:14.335Z,9.05
2024-01-05T10:44:05.274Z,9.12
2024-01-05T10:46:55.234Z,8.72
2024-01-05T10:49:50.542Z,8.72
2024-01-05T10:52:40.978Z,8.57
2024-01-05T10:55:30.127Z,8.51
2024-01-05T10:58:18.955Z,8.38
2024-01-05T11:01:08.659Z,8.38
2024-01-05T11:03:58.648Z,8.34
2024-01-05T11:06:47.472Z,8.47
2024-01-05T11:13:41.824Z,8.45
2024-01-05T11:17:00.724Z,8.52
2024-01-05T11:20:13.317Z,8.66
2024-01-05T11:23:02.473Z,8.76
2024-01-05T11:25:51.281Z,8.84
2024-01-05T11:28:41.023Z,8.88
2024-01-05T11:31:54.512Z,8.77
2024-01-05T11:34:42.884Z,8.76
2024-01-05T11:37:31.868Z,8.63
2024-01-05T11:40:29.128Z,8.51
2024-01-05T11:43:39.822Z,8.59
2024-01-05T11:46:53.735Z,8.48
2024-01-05T11:49:43.264Z,8.63
2024-01-05T11:52:31.935Z,8.70
2024-01-05T11:55:20.237Z,8.71
2024-01-05T11:58:09.294Z,8.65
2024-01-05T12:00:58.750Z,8.90
2024-01-05T12:03:48.510Z,9.02
2024-01-05T12:06:36.709Z,9.01
2024-01-05T12:09:25.041Z,9.10
2024-01-05T12:12:20.397Z,9.20
2024-01-05T12:15:11.808Z,9.15
2024-01-05T12:18:16.853Z,9.07
2024-01-05T12:21:15.531Z,9.14
2024-01-05T12:24:05.193Z,9.31
2024-01-05T12:26:55.203Z,9.36
2024-01-05T12:29:44.245Z,9.39
2024-01-05T12:32:34.406Z,9.23
2024-01-05T12:35:22.960Z,9.41
2024-01-05T12:38:12.441Z,9.47
2024-01-05T12:41:09.346Z,9.41
2024-01-05T12:43:58.354Z,9.34
2024-01-05T12:46:48.781Z,9.33
2024-01-05T12:49:38.024Z,9.32
2024-01-05T12:52:36.443Z,9.51
2024-01-05T12:55:33.858Z,9.49
2024-01-05T12:58:22.143Z,9.65
2024-01-05T13:01:18.874Z,9.61
2024-01-05T13:04:09.425Z,9.55
2024-01-05T13:06:57.586Z,9.77
2024-01-05T13:09:45.859Z,9.73
2024-01-05T13:12:36.026Z,9.85
2024-01-05T13:15:25.051Z,9.94
2024-01-05T13:18:13.366Z,9.82
2024-01-05T13:21:01.654Z,9.78
2024-01-05T13:23:53.497Z,9.60
2024-01-05T13:26:42.372Z,9.58
2024-01-05T13:29:31.953Z,9.51
2024-01-05T13:32:20.148Z,9.52
2024-01-05T13:35:09.209Z,9.73
2024-01-05T13:37:57.363Z,9.54
2024-01-05T13:40:45.426Z,9.44
2024-01-05T13:43:33.728Z,9.36
2024-01-05T13:46:23.167Z,9.35
2024-01-05T13:49:11.409Z,9.38
2024-01-05T13:51:59.581Z,9.37
2024-01-05T13:54:50.045Z,9.33
2024-01-05T13:57:38.434Z,9.37
2024-01-05T14:00:26.639Z,9.22
2024-01-05T14:03:16.655Z,9.14
2024-01-05T14:06:13.362Z,8.99
2024-01-05T14:09:02.496Z,8.85
2024-01-05T14:11:51.456Z,8.65
2024-01-05T14:14:39.957Z,8.62
2024-01-05T14:17:28.247Z,8.56
2024-01-05T14:20:18.626Z,8.47
2024-01-05T14:23:09.377Z,8.50
2024-01-05T14:25:58.361Z,8.34
2024-01-05T14:28:46.695Z,8.39
2024-01-05T14:31:36.161Z,8.39
2024-01-05T14:34:24.595Z,8.29
2024-01-05T14:37:14.218Z,8.21
2024-01-05T14:40:02.331Z,8.22
2024-01-05T14:42:50.566Z,8.17
2024-01-05T14:45:38.885Z,8.12
2024-01-05T14:48:28.056Z,8.05
2024-01-05T14:51:16.522Z,7.94
2024-01-05T14:54:06.231Z,7.89
2024-01-05T14:56:54.531Z,7.81
2024-01-05T14:59:42.587Z,7.77
2024-01-05T15:02:30.839Z,7.62
2024-01-05T15:05:19.049Z,7.64
2024-01-05T15:08:08.693Z,7.54
2024-01-05T15:10:58.162Z,7.43
2024-01-05T15:13:46.303Z,7.14
2024-01-05T15:16:40.979Z,7.13
2024-01-05T15:19:29.403Z,7.10
2024-01-05T15:22:18.228Z,6.99
2024-01-05T15:25:07.230Z,6.94
2024-01-05T15:27:57.797Z,6.84
2024-01-05T15:30:46.049Z,6.75
2024-01-05T15:33:34.268Z,6.69
2024-01-05T15:36:25.239Z,6.58
2024-01-05T15:39:13.912Z,6.53
2024-01-05T15:42:02.262Z,6.48
2024-01-05T15:44:51.847Z,6.42
2024-01-05T15:47:40.028Z,6.48
2024-01-05T15:50:29.228Z,6.23
2024-01-05T15:53:17.415Z,6.35
2024-01-05T15:56:07.672Z,6.20
2024-01-05T15:58:56.139Z,6.03
2024-01-05T16:01:48.520Z,6.10
2024-01-05T16:04:36.717Z,6.01
2024-01-05T16:07:25.395Z,5.99
2024-01-05T16:10:13.892Z,5.87
2024-01-05T16:14:19.715Z,5.86
2024-01-05T16:17:07.957Z,5.91
2024-01-05T16:19:56.102Z,6.01
2024-01-05T16:22:44.465Z,6.01
2024-01-05T16:25:32.767Z,5.98
2024-01-05T16:28:20.894Z,5.97
2024-01-05T16:31:11.358Z,5.96
2024-01-05T16:33:59.750Z,5.92
2024-01-05T16:36:48.123Z,5.78
2024-01-05T16:39:36.720Z,5.89
2024-01-05T16:42:24.958Z,5.83
2024-01-05T16:45:13.630Z,5.75
2024-01-05T16:48:03.425Z,5.65
2024-01-05T16:50:51.674Z,5.43
2024-01-05T16:53:39.807Z,5.51
2024-01-05T16:56:30.151Z,5.51
2024-01-05T16:59:18.812Z,5.46
2024-01-05T17:02:08.934Z,5.46
2024-01-05T17:04:59.268Z,5.37
2024-01-05T17:07:47.418Z,5.48
2024-01-05T17:10:36.337Z,5.51
2024-01-05T17:13:25.589Z,5.29
2024-01-05T17:16:13.970Z,5.37
2024-01-05T17:19:02.117Z,5.24
2024-01-05T17:21:53.074Z,5.16
2024-01-05T17:24:41.281Z,5.02
2024-01-05T17:27:29.703Z,4.87
2024-01-05T17:30:18.090Z,4.82
2024-01-05T17:33:06.678Z,4.69
2024-01-05T17:35:58.896Z,4.59
2024-01-05T17:38:50.580Z,4.59
2024-01-05T17:41:40.263Z,4.55
2024-01-05T17:44:31.336Z,4.61
2024-01-05T17:47:21.634Z,4.47
2024-01-05T17:50:11.013Z,4.47
2024-01-05T17:52:59.108Z,4.37
2024-01-05T17:55:48.573Z,4.48
2024-01-05T17:58:36.805Z,4.36
2024-01-05T18:01:09.357Z,4.25
2024-01-05T18:03:41.909Z,4.43
2024-01-05T18:06:10.826Z,4.41
2024-01-05T18:08:39.143Z,4.32
2024-01-05T18:11:09.497Z,4.33
2024-01-05T18:13:37.993Z,4.32
2024-01-05T18:16:07.648Z,4.27
2024-01-05T18:18:39.512Z,4.21
2024-01-05T18:21:08.101Z,4.08
2024-01-05T18:23:36.388Z,4.22
2024-01-05T18:26:04.909Z,4.17
2024-01-05T18:28:34.402Z,4.20
2024-01-05T18:31:03.637Z,4.15
2024-01-05T18:33:31.952Z,4.00
2024-01-05T18:36:00.293Z,4.10
2024-01-05T18:38:28.546Z,4.20
2024-01-05T18:40:56.943Z,4.14
2024-01-05T18:43:25.605Z,4.25
2024-01-05T18:45:55.653Z,4.32
2024-01-05T18:48:24.158Z,4.25
2024-01-05T18:50:52.534Z,4.13
2024-01-05T18:53:21.402Z,4.36
2024-01-05T18:55:50.651Z,4.24
2024-01-05T18:58:18.866Z,4.19
2024-01-05T19:00:47.214Z,4.07
2024-01-05T19:03:16.961Z,4.02
2024-01-05T19:05:45.294Z,3.93
2024-01-05T19:08:16.218Z,3.84
2024-01-05T19:10:46.329Z,3.84
2024-01-05T19:13:16.044Z,3.79
2024-01-05T19:15:45.391Z,3.75
2024-01-05T19:18:14.122Z,3.49
2024-01-05T19:20:44.037Z,3.51
2024-01-05T19:23:13.030Z,3.35
2024-01-05T19:25:42.083Z,3.24
2024-01-05T19:28:10.287Z,3.16
2024-01-05T19:30:38.522Z,3.02
2024-01-05T19:33:06.969Z,2.98
2024-01-05T19:35:35.373Z,2.95
2024-01-05T19:38:05.902Z,2.87
2024-01-05T19:40:34.599Z,2.84
2024-01-05T19:43:09.894Z,2.88
2024-01-05T19:45:39.013Z,2.98
2024-01-05T19:48:08.729Z,2.87
2024-01-05T19:50:38.567Z,2.83
2024-01-05T19:53:08.356Z,2.74
2024-01-05T19:55:36.726Z,2.63
2024-01-05T19:58:05.733Z,2.61
2024-01-05T20:00:52.383Z,2.62
2024-01-05T20:03:20.685Z,2.59
2024-01-05T20:05:48.998Z,2.60
2024-01-05T20:08:17.557Z,2.59
2024-01-05T20:10:45.787Z,2.58
2024-01-05T20:13:14.085Z,2.52
2024-01-05T20:15:42.550Z,2.45
2024-01-05T20:18:24.567Z,2.55
2024-01-05T20:20:52.863Z,2.49
2024-01-05T20:23:22.627Z,2.48
2024-01-05T20:25:51.961Z,2.40
2024-01-05T20:28:20.546Z,2.39
2024-01-05T20:30:49.368Z,2.36
2024-01-05T20:33:17.801Z,2.18
2024-01-05T20:35:46.511Z,2.40
2024-01-05T20:38:15.367Z,2.42
2024-01-05T20:40:46.367Z,2.36
2024-01-05T20:43:14.736Z,2.43
2024-01-05T20:45:45.117Z,2.48
2024-01-05T20:48:13.655Z,2.50
2024-01-05T20:50:41.874Z,2.40
2024-01-05T20:53:12.014Z,2.37
2024-01-05T20:55:41.108Z,2.27
2024-01-05T20:58:10.770Z,2.21
2024-01-05T21:00:39.205Z,2.22
2024-01-05T21:03:08.008Z,2.18
2024-01-05T21:05:36.621Z,2.14
2024-01-05T21:08:05.700Z,2.01
2024-01-05T21:10:33.933Z,2.21
2024-01-05T21:15:19.865Z,2.25
2024-01-05T21:17:49.196Z,2.16
2024-01-05T21:20:17.483Z,2.28
2024-01-05T21:22:45.972Z,2.27
2024-01-05T21:25:14.275Z,2.22
2024-01-05T21:27:42.457Z,2.16
2024-01-05T21:30:11.648Z,2.13
2024-01-05T21:32:41.457Z,2.09
2024-01-05T21:35:10.085Z,2.01
2024-01-05T21:37:38.714Z,2.00
2024-01-05T21:40:08.564Z,1.93
2024-01-05T21:42:37.376Z,1.92
2024-01-05T21:45:08.033Z,1.93
2024-01-05T21:47:36.513Z,1.91
2024-01-05T21:50:07.612Z,1.92
2024-01-05T21:52:36.129Z,1.94
2024-01-05T21:55:04.694Z,1.96
2024-01-05T21:57:33.027Z,1.96
2024-01-05T22:00:01.708Z,2.01
2024-01-05T22:02:32.841Z,1.99
2024-01-05T22:05:01.180Z,1.97
2024-01-05T22:07:31.127Z,2.02
2024-01-05T22:09:59.933Z,2.26
2024-01-05T22:12:28.372Z,2.46
2024-01-05T22:14:56.497Z,2.50
2024-01-05T22:17:26.387Z,2.39
2024-01-05T22:19:54.841Z,2.47
2024-01-05T22:22:23.074Z,2.37
2024-01-05T22:24:52.863Z,2.34
2024-01-05T22:27:22.261Z,2.40
2024-01-05T22:29:50.447Z,2.35
2024-01-05T22:32:18.880Z,2.30
2024-01-05T22:34:47.564Z,2.30
2024-01-05T22:37:16.741Z,2.27
2024-01-05T22:39:45.113Z,2.26
2024-01-05T22:42:16.231Z,2.19
2024-01-05T22:44:44.481Z,2.23
2024-01-05T22:47:12.840Z,2.15
2024-01-05T22:49:41.877Z,2.11
2024-01-05T22:52:10.265Z,2.11
2024-01-05T22:54:40.646Z,2.14
2024-01-05T22:57:11.131Z,2.18
2024-01-05T22:59:42.076Z,2.12
2024-01-05T23:02:09.240Z,2.07
2024-01-05T23:04:41.283Z,2.03
2024-01-05T23:07:10.312Z,1.99
2024-01-05T23:09:38.877Z,1.92
2024-01-05T23:12:09.236Z,1.89
2024-01-05T23:14:37.446Z,1.91
2024-01-05T23:17:07.033Z,1.86
2024-01-05T23:19:35.388Z,1.92
2024-01-05T23:22:03.695Z,1.90
2024-01-05T23:24:31.899Z,1.84
2024-01-05T23:27:00.179Z,1.83
2024-01-05T23:29:28.780Z,1.79
2024-01-05T23:31:57.779Z,1.83
2024-01-05T23:34:27.825Z,1.92
2024-01-05T23:36:56.242Z,1.97
2024-01-05T23:39:39.401Z,1.96
2024-01-05T23:42:09.690Z,2.00
2024-01-05T23:44:41.495Z,2.01
2024-01-05T23:47:09.744Z,2.04
2024-01-05T23:49:39.406Z,2.07
2024-01-05T23:52:07.943Z,2.09
2024-01-05T23:54:36.369Z,2.12
2024-01-05T23:57:05.076Z,2.23
2024-01-05T23:59:33.353Z,2.32
